Terminal Aerodrome Forecast
Issued by NWS

Home | Current Version | Previous Version | Text Only | Print | Product List | Glossary On
Versions: 1 2 3 4 5 6 7 8 9 10 11 12 13 14 15 16 17 18 19 20 21 22 23 24 25
000
FTUS44 KLZK 012300
TAFHRO
TAF
KHRO 012329Z 0200/0224 12003KT P6SM SCT250
     FM020400 12003KT 3SM BR SCT250
     FM021500 11005KT P6SM SCT250
     FM021900 06006KT P6SM BKN050=

USA.gov is the U.S. government's official web portal to all federal, state and local government web resources and services.